Terminal Aerodrome Forecast
Issued by NWS

Home | Current Version | Previous Version | Graphics & Text | Print | Product List | Glossary On
Versions: 1 2 3 4 5 6 7 8 9 10 11 12 13 14 15 16 17 18 19
000
FTUS43 KBIS 221120
TAFJMS
TAF
KJMS 221120Z 2212/2312 02013G19KT P6SM FEW028 SCT080
     FM221500 05014G23KT P6SM VCTS BKN015CB BKN110
     FM221900 03010KT P6SM BKN008
     FM230000 34011KT P6SM VCSH BKN008
     FM230600 34011KT P6SM BKN008=

USA.gov is the U.S. government's official web portal to all federal, state and local government web resources and services.